createdAt,value
2022-10-22T00:00:09.235Z,75.77
2022-10-22T00:00:19.499Z,75.77
2022-10-22T00:00:29.778Z,75.67
2022-10-22T00:00:40.061Z,75.67
2022-10-22T00:00:50.332Z,75.67
2022-10-22T00:01:00.583Z,75.67
2022-10-22T00:01:10.861Z,75.57
2022-10-22T00:01:21.123Z,75.57
2022-10-22T00:01:31.386Z,75.67
2022-10-22T00:01:41.648Z,75.67
2022-10-22T00:01:51.910Z,75.67
2022-10-22T00:02:02.173Z,75.67
2022-10-22T00:02:12.434Z,75.67
2022-10-22T00:02:22.768Z,75.67
2022-10-22T00:02:33.083Z,75.67
2022-10-22T00:02:43.431Z,75.67
2022-10-22T00:02:53.735Z,75.57
2022-10-22T00:03:04.106Z,75.46
2022-10-22T00:03:14.344Z,75.46
2022-10-22T00:03:24.607Z,75.46
2022-10-22T00:03:34.870Z,75.46
2022-10-22T00:03:45.131Z,75.46
2022-10-22T00:03:55.395Z,75.46
2022-10-22T00:04:05.661Z,75.46
2022-10-22T00:04:15.924Z,75.46
2022-10-22T00:04:26.954Z,75.46
2022-10-22T00:04:36.660Z,75.37
2022-10-22T00:04:46.894Z,75.37
2022-10-22T00:04:57.315Z,75.46
2022-10-22T00:05:07.361Z,75.46
2022-10-22T00:05:17.618Z,75.46
2022-10-22T00:05:27.882Z,75.57
2022-10-22T00:05:38.145Z,75.57
2022-10-22T00:05:48.407Z,75.67
2022-10-22T00:05:58.675Z,75.67
2022-10-22T00:06:08.940Z,75.67
2022-10-22T00:06:19.211Z,75.77
2022-10-22T00:06:29.474Z,75.77
2022-10-22T00:06:39.735Z,75.77
2022-10-22T00:06:49.998Z,75.87
2022-10-22T00:07:00.258Z,75.87
2022-10-22T00:07:10.521Z,75.87
2022-10-22T00:07:20.784Z,75.87
2022-10-22T00:07:31.045Z,75.98
2022-10-22T00:07:41.632Z,75.98
2022-10-22T00:07:51.647Z,75.98
2022-10-22T00:08:01.909Z,75.98
2022-10-22T00:08:12.170Z,75.98
2022-10-22T00:08:22.431Z,75.98
2022-10-22T00:08:32.818Z,75.98
2022-10-22T00:08:43.136Z,75.98
2022-10-22T00:08:53.470Z,75.98
2022-10-22T00:09:03.796Z,75.98
2022-10-22T00:09:14.150Z,75.98
2022-10-22T00:09:24.401Z,75.98
2022-10-22T00:09:34.666Z,75.98
2022-10-22T00:09:44.925Z,75.98
2022-10-22T00:09:55.185Z,76.07
2022-10-22T00:10:05.449Z,76.07
2022-10-22T00:10:15.709Z,76.07
2022-10-22T00:10:25.972Z,76.07
2022-10-22T00:10:36.234Z,76.07
2022-10-22T00:10:46.493Z,75.98
2022-10-22T00:10:56.757Z,75.98
2022-10-22T00:11:07.018Z,75.87
2022-10-22T00:11:17.293Z,75.87
2022-10-22T00:11:27.554Z,75.87
2022-10-22T00:11:37.817Z,75.87
2022-10-22T00:11:48.079Z,75.98
2022-10-22T00:11:58.341Z,75.98
2022-10-22T00:12:08.622Z,75.98
2022-10-22T00:12:18.886Z,75.98
2022-10-22T00:12:29.145Z,75.98
2022-10-22T00:12:39.408Z,75.98
2022-10-22T00:12:49.668Z,75.98
2022-10-22T00:12:59.931Z,75.87
2022-10-22T00:13:10.192Z,75.98
2022-10-22T00:13:20.455Z,75.87
2022-10-22T00:13:30.718Z,75.87
2022-10-22T00:13:41.031Z,75.87
2022-10-22T00:13:51.301Z,75.87
2022-10-22T00:14:01.546Z,75.87
2022-10-22T00:14:11.829Z,75.77
2022-10-22T00:14:22.066Z,75.67
2022-10-22T00:14:32.330Z,75.67
2022-10-22T00:14:42.590Z,75.67
2022-10-22T00:14:52.857Z,75.57
2022-10-22T00:15:03.135Z,75.57
2022-10-22T00:15:13.376Z,75.57
2022-10-22T00:15:23.639Z,75.57
2022-10-22T00:15:33.900Z,75.57
2022-10-22T00:15:44.160Z,75.57
2022-10-22T00:15:54.423Z,75.57
2022-10-22T00:16:04.694Z,75.57
2022-10-22T00:16:14.961Z,75.67
2022-10-22T00:16:25.220Z,75.67
2022-10-22T00:16:35.484Z,75.67
2022-10-22T00:16:45.746Z,75.67
2022-10-22T00:16:56.008Z,75.67
2022-10-22T00:17:10.589Z,75.67
2022-10-22T00:17:17.699Z,75.67
2022-10-22T00:17:27.102Z,75.67
2022-10-22T00:17:37.760Z,75.57
2022-10-22T00:17:47.595Z,75.57
2022-10-22T00:17:57.865Z,75.57
2022-10-22T00:18:08.121Z,75.46
2022-10-22T00:18:18.542Z,75.46
2022-10-22T00:18:28.802Z,75.46
2022-10-22T00:18:39.064Z,75.46
2022-10-22T00:18:49.323Z,75.37
2022-10-22T00:18:59.587Z,75.46
2022-10-22T00:19:09.848Z,75.46
2022-10-22T00:19:20.109Z,75.46
2022-10-22T00:19:30.371Z,75.57
2022-10-22T00:19:40.632Z,75.67
2022-10-22T00:19:50.899Z,75.77
2022-10-22T00:20:01.161Z,75.77
2022-10-22T00:20:11.418Z,75.77
2022-10-22T00:20:21.679Z,75.67
2022-10-22T00:20:31.940Z,75.67
2022-10-22T00:20:42.219Z,75.57
2022-10-22T00:20:52.479Z,75.57
2022-10-22T00:21:02.750Z,75.57
2022-10-22T00:21:13.001Z,75.57
2022-10-22T00:21:23.264Z,75.57
2022-10-22T00:21:33.524Z,75.57
2022-10-22T00:21:43.786Z,75.57
2022-10-22T00:21:54.053Z,75.57
2022-10-22T00:22:04.312Z,75.57
2022-10-22T00:22:14.572Z,75.57
2022-10-22T00:22:24.834Z,75.67
2022-10-22T00:22:35.092Z,75.67
2022-10-22T00:22:45.390Z,75.67
2022-10-22T00:22:55.617Z,75.67
2022-10-22T00:23:05.883Z,75.67
2022-10-22T00:23:16.138Z,75.57
2022-10-22T00:23:26.400Z,75.57
2022-10-22T00:23:36.664Z,75.57
2022-10-22T00:23:46.927Z,75.46
2022-10-22T00:23:57.245Z,75.46
2022-10-22T00:24:07.507Z,75.57
2022-10-22T00:24:17.774Z,75.57
2022-10-22T00:24:28.027Z,75.57
2022-10-22T00:24:38.287Z,75.57
2022-10-22T00:24:48.549Z,75.57
2022-10-22T00:24:58.809Z,75.57
2022-10-22T00:25:09.071Z,75.57
2022-10-22T00:25:19.332Z,75.57
2022-10-22T00:25:29.594Z,75.67
2022-10-22T00:25:39.854Z,75.67
2022-10-22T00:25:50.130Z,75.67
2022-10-22T00:26:00.391Z,75.67
2022-10-22T00:26:10.652Z,75.67
2022-10-22T00:26:20.912Z,75.67
2022-10-22T00:26:31.176Z,75.67
2022-10-22T00:26:41.438Z,75.67
2022-10-22T00:26:51.701Z,75.67
2022-10-22T00:27:01.959Z,75.67
2022-10-22T00:27:12.222Z,75.67
2022-10-22T00:27:22.482Z,75.67
2022-10-22T00:27:32.743Z,75.67
2022-10-22T00:27:43.241Z,75.67
2022-10-22T00:27:53.402Z,75.67
2022-10-22T00:28:03.667Z,75.67
2022-10-22T00:28:13.924Z,75.67
2022-10-22T00:28:24.183Z,75.77
2022-10-22T00:28:34.446Z,75.77
2022-10-22T00:28:44.707Z,75.77
2022-10-22T00:28:54.969Z,75.77
2022-10-22T00:29:05.231Z,75.87
2022-10-22T00:29:15.514Z,75.98
2022-10-22T00:29:25.753Z,75.98
2022-10-22T00:29:36.013Z,75.98
2022-10-22T00:29:46.274Z,75.98
2022-10-22T00:29:56.671Z,76.07
2022-10-22T00:30:06.929Z,76.07
2022-10-22T00:30:17.190Z,76.07
2022-10-22T00:30:27.452Z,76.07
2022-10-22T00:30:37.714Z,76.07
2022-10-22T00:30:47.987Z,76.18
2022-10-22T00:30:58.249Z,76.18
2022-10-22T00:31:08.509Z,76.18
2022-10-22T00:31:18.772Z,76.18
2022-10-22T00:31:29.031Z,76.18
2022-10-22T00:31:39.294Z,76.18
2022-10-22T00:31:49.623Z,76.18
2022-10-22T00:31:59.879Z,76.18
2022-10-22T00:32:10.139Z,76.18
2022-10-22T00:32:20.402Z,76.07
2022-10-22T00:32:30.661Z,76.07
2022-10-22T00:32:41.333Z,76.07
2022-10-22T00:32:51.292Z,76.18
2022-10-22T00:33:01.560Z,76.18
2022-10-22T00:33:11.828Z,76.18
2022-10-22T00:33:22.092Z,76.18
2022-10-22T00:33:32.350Z,76.18
2022-10-22T00:33:42.611Z,76.28
2022-10-22T00:33:52.872Z,76.28
2022-10-22T00:34:03.134Z,76.28
2022-10-22T00:34:13.395Z,76.38
2022-10-22T00:34:23.660Z,76.38
2022-10-22T00:34:33.920Z,76.38
2022-10-22T00:34:44.183Z,76.38
2022-10-22T00:34:54.441Z,76.38
2022-10-22T00:35:04.830Z,76.38
2022-10-22T00:35:15.088Z,76.38
2022-10-22T00:35:25.351Z,76.38
2022-10-22T00:35:35.611Z,76.38
2022-10-22T00:35:45.883Z,76.38
2022-10-22T00:35:56.147Z,76.38
2022-10-22T00:36:06.409Z,76.38
2022-10-22T00:36:16.669Z,76.28
2022-10-22T00:36:26.932Z,76.28
2022-10-22T00:36:37.192Z,76.28
2022-10-22T00:36:47.456Z,76.18
2022-10-22T00:36:57.716Z,76.18
2022-10-22T00:37:07.978Z,76.07
2022-10-22T00:37:18.286Z,76.07
2022-10-22T00:37:28.550Z,76.07
2022-10-22T00:37:38.810Z,76.18
2022-10-22T00:37:49.072Z,76.18
2022-10-22T00:37:59.333Z,76.18
2022-10-22T00:38:09.596Z,76.18
2022-10-22T00:38:19.855Z,76.18
2022-10-22T00:38:30.118Z,76.18
2022-10-22T00:38:40.378Z,76.18
2022-10-22T00:38:50.639Z,76.18
2022-10-22T00:39:00.901Z,76.18
2022-10-22T00:39:11.164Z,76.07
2022-10-22T00:39:21.424Z,76.07
2022-10-22T00:39:31.686Z,76.07
2022-10-22T00:39:41.947Z,76.18
2022-10-22T00:39:52.212Z,76.18
2022-10-22T00:40:02.476Z,76.28
2022-10-22T00:40:12.734Z,76.31
2022-10-22T00:40:22.994Z,76.28
2022-10-22T00:40:33.255Z,76.28
2022-10-22T00:40:43.515Z,76.28
2022-10-22T00:40:53.843Z,76.28
2022-10-22T00:41:04.072Z,76.18
2022-10-22T00:41:14.334Z,76.18
2022-10-22T00:41:24.593Z,76.18
2022-10-22T00:41:34.856Z,76.18
2022-10-22T00:41:45.116Z,76.11
2022-10-22T00:41:55.379Z,76.07
2022-10-22T00:42:05.640Z,76.11
2022-10-22T00:42:15.904Z,76.11
2022-10-22T00:42:26.164Z,76.07
2022-10-22T00:42:36.425Z,76.07
2022-10-22T00:42:46.688Z,76.07
2022-10-22T00:42:56.949Z,76.11
2022-10-22T00:43:07.210Z,76.11
2022-10-22T00:43:17.474Z,76.11
2022-10-22T00:43:27.735Z,75.98
2022-10-22T00:43:37.998Z,76.11
2022-10-22T00:43:48.259Z,76.07
2022-10-22T00:43:58.520Z,76.11
2022-10-22T00:44:08.781Z,76.07
2022-10-22T00:44:19.068Z,76.07
2022-10-22T00:44:29.306Z,76.07
2022-10-22T00:44:39.572Z,76.07
2022-10-22T00:44:49.830Z,76.07
2022-10-22T00:45:00.102Z,76.11
2022-10-22T00:45:10.353Z,76.11
2022-10-22T00:45:20.625Z,76.07
2022-10-22T00:45:30.877Z,76.11
2022-10-22T00:45:41.141Z,76.11
2022-10-22T00:45:51.401Z,76.11
2022-10-22T00:46:01.678Z,76.11
2022-10-22T00:46:11.937Z,76.07
2022-10-22T00:46:22.200Z,76.11
2022-10-22T00:46:32.465Z,76.11
2022-10-22T00:46:42.723Z,76.07
2022-10-22T00:46:52.987Z,76.01
2022-10-22T00:47:03.247Z,76.01
2022-10-22T00:47:13.508Z,75.98
2022-10-22T00:47:23.773Z,76.01
2022-10-22T00:47:34.030Z,75.87
2022-10-22T00:47:44.293Z,76.01
2022-10-22T00:47:54.552Z,76.01
2022-10-22T00:48:04.818Z,76.01
2022-10-22T00:48:15.074Z,76.01
2022-10-22T00:48:25.338Z,76.01
2022-10-22T00:48:35.599Z,76.01
2022-10-22T00:48:45.858Z,76.01
2022-10-22T00:48:56.118Z,76.01
2022-10-22T00:49:06.387Z,76.01
2022-10-22T00:49:16.639Z,75.98
2022-10-22T00:49:26.902Z,76.01
2022-10-22T00:49:37.162Z,76.01
2022-10-22T00:49:47.425Z,76.01
2022-10-22T00:49:57.738Z,76.01
2022-10-22T00:50:07.968Z,76.01
2022-10-22T00:50:18.228Z,76.01
2022-10-22T00:50:28.490Z,75.91
2022-10-22T00:50:38.751Z,75.91
2022-10-22T00:50:49.012Z,75.91
2022-10-22T00:50:59.287Z,75.91
2022-10-22T00:51:09.550Z,75.81
2022-10-22T00:51:19.811Z,75.81
2022-10-22T00:51:30.173Z,75.81
2022-10-22T00:51:40.381Z,75.81
2022-10-22T00:51:50.644Z,75.81
2022-10-22T00:52:00.912Z,75.81
2022-10-22T00:52:11.172Z,75.81
2022-10-22T00:52:21.431Z,75.81
2022-10-22T00:52:31.690Z,75.81
2022-10-22T00:52:42.186Z,75.81
2022-10-22T00:52:52.359Z,75.91
2022-10-22T00:53:02.618Z,75.81
2022-10-22T00:53:12.879Z,75.81
2022-10-22T00:53:23.140Z,75.81
2022-10-22T00:53:33.402Z,75.81
2022-10-22T00:53:43.662Z,75.81
2022-10-22T00:53:53.923Z,75.81
2022-10-22T00:54:04.184Z,75.70
2022-10-22T00:54:14.447Z,75.70
2022-10-22T00:54:24.706Z,75.70
2022-10-22T00:54:34.971Z,75.70
2022-10-22T00:54:45.231Z,75.70
2022-10-22T00:54:55.493Z,75.70
2022-10-22T00:55:05.752Z,75.70
2022-10-22T00:55:16.017Z,75.70
2022-10-22T00:55:26.277Z,75.70
2022-10-22T00:55:36.541Z,75.70
2022-10-22T00:55:46.798Z,75.70
2022-10-22T00:55:57.076Z,75.70
2022-10-22T00:56:07.337Z,75.70
2022-10-22T00:56:17.597Z,75.70
2022-10-22T00:56:27.857Z,75.70
2022-10-22T00:56:38.119Z,75.70
2022-10-22T00:56:48.380Z,75.81
2022-10-22T00:56:58.641Z,75.81
2022-10-22T00:57:08.901Z,75.81
2022-10-22T00:57:19.162Z,75.91
2022-10-22T00:57:29.425Z,75.91
2022-10-22T00:57:39.687Z,75.91
2022-10-22T00:57:49.947Z,76.01
2022-10-22T00:58:00.209Z,76.01
2022-10-22T00:58:10.471Z,76.01
2022-10-22T00:58:20.729Z,76.01
2022-10-22T00:58:30.991Z,76.01
2022-10-22T00:58:41.252Z,76.11
2022-10-22T00:58:51.514Z,76.11
2022-10-22T00:59:01.857Z,76.11
2022-10-22T00:59:12.119Z,76.11
2022-10-22T00:59:22.400Z,76.11
2022-10-22T00:59:32.641Z,76.11
2022-10-22T00:59:42.904Z,76.11
2022-10-22T00:59:53.166Z,76.11
2022-10-22T01:00:03.431Z,76.21
2022-10-22T01:00:13.690Z,76.21
2022-10-22T01:00:23.954Z,76.21
2022-10-22T01:00:34.263Z,76.21
2022-10-22T01:00:44.582Z,76.21
2022-10-22T01:00:54.912Z,76.21
2022-10-22T01:01:05.121Z,76.21
2022-10-22T01:01:15.445Z,76.21
2022-10-22T01:01:25.785Z,76.21
2022-10-22T01:01:36.036Z,76.21
2022-10-22T01:01:46.295Z,76.21
2022-10-22T01:01:56.710Z,76.11
2022-10-22T01:02:06.971Z,76.11
2022-10-22T01:02:17.232Z,76.01
2022-10-22T01:02:27.493Z,75.91
2022-10-22T01:02:38.050Z,75.91
2022-10-22T01:02:48.073Z,75.91
2022-10-22T01:02:58.343Z,75.91
2022-10-22T01:03:08.595Z,75.91
2022-10-22T01:03:18.859Z,75.91
2022-10-22T01:03:29.117Z,75.91
2022-10-22T01:03:39.380Z,75.91
2022-10-22T01:03:49.640Z,75.91
2022-10-22T01:03:59.902Z,76.01
2022-10-22T01:04:10.164Z,76.01
2022-10-22T01:04:20.425Z,76.01
2022-10-22T01:04:30.686Z,76.01
2022-10-22T01:04:40.949Z,76.01
2022-10-22T01:04:51.209Z,76.01
2022-10-22T01:05:01.470Z,76.01
2022-10-22T01:05:11.733Z,76.01
2022-10-22T01:05:21.992Z,76.01
2022-10-22T01:05:32.253Z,76.01
2022-10-22T01:05:42.513Z,76.01
2022-10-22T01:05:52.774Z,76.01
2022-10-22T01:06:03.051Z,76.01
2022-10-22T01:06:13.310Z,76.01
2022-10-22T01:06:23.572Z,76.01
2022-10-22T01:06:33.833Z,76.01
2022-10-22T01:06:44.134Z,76.01
2022-10-22T01:06:54.394Z,75.91
2022-10-22T01:07:04.661Z,75.91
2022-10-22T01:07:14.920Z,76.01
2022-10-22T01:07:25.181Z,76.01
2022-10-22T01:07:35.448Z,76.01
2022-10-22T01:07:45.704Z,76.01
2022-10-22T01:07:55.964Z,76.01
2022-10-22T01:08:06.248Z,76.11
2022-10-22T01:08:16.489Z,76.11
2022-10-22T01:08:26.750Z,76.11
2022-10-22T01:08:37.056Z,76.11
2022-10-22T01:08:47.298Z,76.11
2022-10-22T01:08:57.814Z,76.01
2022-10-22T01:09:07.952Z,76.01
2022-10-22T01:09:18.203Z,76.01
2022-10-22T01:09:28.466Z,76.01
2022-10-22T01:09:38.718Z,76.11
2022-10-22T01:09:48.979Z,76.11
2022-10-22T01:09:59.242Z,76.11
2022-10-22T01:10:09.507Z,76.11
2022-10-22T01:10:19.765Z,76.11
2022-10-22T01:10:30.036Z,76.11
2022-10-22T01:10:40.288Z,76.11
2022-10-22T01:10:50.555Z,76.11
2022-10-22T01:11:00.828Z,76.11
2022-10-22T01:11:11.089Z,76.01
2022-10-22T01:11:21.347Z,76.01
2022-10-22T01:11:31.609Z,76.01
2022-10-22T01:11:41.869Z,76.01
2022-10-22T01:11:52.134Z,76.01
2022-10-22T01:12:02.399Z,75.91
2022-10-22T01:12:12.655Z,75.91
2022-10-22T01:12:22.917Z,75.91
2022-10-22T01:12:33.177Z,75.91
2022-10-22T01:12:43.643Z,75.81
2022-10-22T01:12:53.861Z,75.81
2022-10-22T01:13:04.119Z,75.81
2022-10-22T01:13:14.384Z,75.81
2022-10-22T01:13:24.655Z,75.70
2022-10-22T01:13:34.925Z,75.70
2022-10-22T01:13:45.186Z,75.70
2022-10-22T01:13:55.450Z,75.81
2022-10-22T01:14:05.710Z,75.81
2022-10-22T01:14:15.972Z,75.81
2022-10-22T01:14:26.253Z,75.81
2022-10-22T01:14:36.494Z,75.91
2022-10-22T01:14:46.756Z,75.91
2022-10-22T01:14:57.018Z,75.91
2022-10-22T01:15:07.278Z,75.91
2022-10-22T01:15:17.540Z,75.91
2022-10-22T01:15:27.816Z,75.91
2022-10-22T01:15:38.147Z,75.91
2022-10-22T01:15:48.409Z,75.91
2022-10-22T01:15:58.669Z,75.81
2022-10-22T01:16:08.944Z,75.81
2022-10-22T01:16:19.207Z,75.81
2022-10-22T01:16:29.466Z,75.81
2022-10-22T01:16:39.728Z,75.81
2022-10-22T01:16:49.989Z,75.81
2022-10-22T01:17:00.255Z,75.81
2022-10-22T01:17:10.599Z,75.81
2022-10-22T01:17:31.104Z,75.91
2022-10-22T01:17:41.784Z,75.91
2022-10-22T01:17:51.627Z,76.01
2022-10-22T01:18:01.888Z,76.01
2022-10-22T01:18:12.149Z,76.11
2022-10-22T01:18:22.413Z,76.11
2022-10-22T01:18:32.675Z,76.11
2022-10-22T01:18:42.936Z,76.11
2022-10-22T01:18:53.198Z,76.11
2022-10-22T01:19:03.460Z,76.21
2022-10-22T01:19:13.723Z,76.21
2022-10-22T01:19:23.984Z,76.31
2022-10-22T01:19:34.245Z,76.42
2022-10-22T01:19:44.510Z,76.42
2022-10-22T01:19:54.770Z,76.52
2022-10-22T01:20:05.029Z,76.52
2022-10-22T01:20:15.290Z,76.52
2022-10-22T01:20:25.553Z,76.52
2022-10-22T01:20:35.817Z,76.52
2022-10-22T01:20:46.076Z,76.52
2022-10-22T01:20:56.448Z,76.52
2022-10-22T01:21:06.725Z,76.52
2022-10-22T01:21:16.984Z,76.52
2022-10-22T01:21:27.247Z,76.52
2022-10-22T01:21:37.508Z,76.52
2022-10-22T01:21:47.769Z,76.52
2022-10-22T01:21:58.029Z,76.52
2022-10-22T01:22:08.292Z,76.52
2022-10-22T01:22:18.516Z,76.62
2022-10-22T01:22:28.786Z,76.62
2022-10-22T01:22:39.040Z,76.72
2022-10-22T01:22:49.302Z,76.72
2022-10-22T01:22:59.563Z,76.72
2022-10-22T01:23:09.833Z,76.72
2022-10-22T01:23:20.091Z,76.72
2022-10-22T01:23:30.350Z,76.72
2022-10-22T01:23:40.611Z,76.72
2022-10-22T01:23:50.875Z,76.72
2022-10-22T01:24:01.133Z,76.72
2022-10-22T01:24:11.397Z,76.62
2022-10-22T01:24:21.655Z,76.62
2022-10-22T01:24:31.916Z,76.52
2022-10-22T01:24:42.182Z,76.52
2022-10-22T01:24:52.438Z,76.42
2022-10-22T01:25:02.697Z,76.42
2022-10-22T01:25:12.960Z,76.31
2022-10-22T01:25:23.220Z,76.31
2022-10-22T01:25:33.482Z,76.31
2022-10-22T01:25:43.744Z,76.31
2022-10-22T01:25:54.007Z,76.31
2022-10-22T01:26:04.288Z,76.31
2022-10-22T01:26:14.657Z,76.21
2022-10-22T01:26:24.899Z,76.21
2022-10-22T01:26:35.160Z,76.21
2022-10-22T01:26:45.423Z,76.21
2022-10-22T01:26:55.713Z,76.21
2022-10-22T01:27:05.945Z,76.11
2022-10-22T01:27:16.208Z,76.11
2022-10-22T01:27:26.474Z,76.11
2022-10-22T01:27:36.735Z,76.21
2022-10-22T01:27:46.990Z,76.21
2022-10-22T01:27:57.302Z,76.21
2022-10-22T01:28:07.555Z,76.21
2022-10-22T01:28:17.819Z,76.21
2022-10-22T01:28:28.078Z,76.21
2022-10-22T01:28:38.341Z,76.21
2022-10-22T01:28:48.602Z,76.31
2022-10-22T01:28:58.864Z,76.31
2022-10-22T01:29:09.126Z,76.31
2022-10-22T01:29:19.388Z,76.31
2022-10-22T01:29:29.671Z,76.31
2022-10-22T01:29:39.911Z,76.31
2022-10-22T01:29:50.177Z,76.31
2022-10-22T01:30:00.440Z,76.21
2022-10-22T01:30:10.699Z,76.21
2022-10-22T01:30:20.961Z,76.21
2022-10-22T01:30:31.229Z,76.21
2022-10-22T01:30:41.483Z,76.31
2022-10-22T01:30:51.764Z,76.31
2022-10-22T01:31:02.008Z,76.31
2022-10-22T01:31:12.283Z,76.31
2022-10-22T01:31:22.544Z,76.21
2022-10-22T01:31:32.805Z,76.21
2022-10-22T01:31:43.072Z,76.21
2022-10-22T01:31:53.329Z,76.31
2022-10-22T01:32:03.591Z,76.31
2022-10-22T01:32:13.852Z,76.31
2022-10-22T01:32:24.114Z,76.31
2022-10-22T01:32:34.376Z,76.42
2022-10-22T01:32:44.637Z,76.42
2022-10-22T01:32:54.899Z,76.42
2022-10-22T01:33:05.160Z,76.42
2022-10-22T01:33:15.421Z,76.42
2022-10-22T01:33:25.683Z,76.42
2022-10-22T01:33:35.944Z,76.31
2022-10-22T01:33:46.206Z,76.31
2022-10-22T01:33:56.527Z,76.31
2022-10-22T01:34:06.790Z,76.31
2022-10-22T01:34:17.050Z,76.31
2022-10-22T01:34:27.313Z,76.42
2022-10-22T01:34:37.573Z,76.42
2022-10-22T01:34:47.994Z,76.42
2022-10-22T01:34:58.258Z,76.42
2022-10-22T01:35:08.519Z,76.42
2022-10-22T01:35:18.878Z,76.42
2022-10-22T01:35:29.188Z,76.42
2022-10-22T01:35:39.435Z,76.42
2022-10-22T01:35:49.696Z,76.42
2022-10-22T01:35:59.959Z,76.42
2022-10-22T01:36:10.222Z,76.42
2022-10-22T01:36:20.479Z,76.42
2022-10-22T01:36:30.742Z,76.42
2022-10-22T01:36:41.001Z,76.42
2022-10-22T01:36:51.264Z,76.42
2022-10-22T01:37:01.525Z,76.31
2022-10-22T01:37:11.791Z,76.31
2022-10-22T01:37:22.046Z,76.42
2022-10-22T01:37:32.310Z,76.42
2022-10-22T01:37:42.958Z,76.42
2022-10-22T01:37:52.823Z,76.42
2022-10-22T01:38:03.085Z,76.31
2022-10-22T01:38:13.347Z,76.31
2022-10-22T01:38:23.609Z,76.31
2022-10-22T01:38:33.872Z,76.31
2022-10-22T01:38:44.132Z,76.31
2022-10-22T01:38:54.393Z,76.31
2022-10-22T01:39:04.728Z,76.21
2022-10-22T01:39:14.991Z,76.21
2022-10-22T01:39:25.252Z,76.21
2022-10-22T01:39:35.514Z,76.21
2022-10-22T01:39:45.775Z,76.11
2022-10-22T01:39:56.038Z,76.11
2022-10-22T01:40:06.299Z,76.11
2022-10-22T01:40:16.567Z,76.11
2022-10-22T01:40:26.825Z,76.11
2022-10-22T01:40:37.086Z,76.11
2022-10-22T01:40:47.362Z,76.11
2022-10-22T01:40:57.640Z,76.11
2022-10-22T01:41:07.903Z,76.11
2022-10-22T01:41:18.164Z,76.11
2022-10-22T01:41:28.426Z,76.01
2022-10-22T01:41:38.683Z,76.01
2022-10-22T01:41:48.944Z,76.01
2022-10-22T01:41:59.203Z,76.01
2022-10-22T01:42:09.467Z,76.01
2022-10-22T01:42:19.729Z,76.01
2022-10-22T01:42:29.988Z,76.01
2022-10-22T01:42:40.248Z,76.01
2022-10-22T01:42:50.509Z,76.01
2022-10-22T01:43:00.779Z,76.01
2022-10-22T01:43:11.034Z,76.01
2022-10-22T01:43:21.293Z,76.01
2022-10-22T01:43:31.562Z,76.01
2022-10-22T01:43:41.814Z,76.01
2022-10-22T01:43:52.076Z,76.01
2022-10-22T01:44:02.337Z,76.01
2022-10-22T01:44:12.598Z,76.01
2022-10-22T01:44:22.911Z,76.01
2022-10-22T01:44:33.242Z,76.01
2022-10-22T01:44:43.336Z,76.01
2022-10-22T01:44:53.701Z,76.01
2022-10-22T01:45:03.948Z,76.01
2022-10-22T01:45:14.181Z,76.11
2022-10-22T01:45:24.439Z,76.11
2022-10-22T01:45:34.703Z,76.11
2022-10-22T01:45:44.981Z,76.11
2022-10-22T01:45:55.239Z,76.11
2022-10-22T01:46:05.498Z,76.11
2022-10-22T01:46:15.761Z,76.21
2022-10-22T01:46:26.025Z,76.11
2022-10-22T01:46:36.287Z,76.11
2022-10-22T01:46:46.549Z,76.11
2022-10-22T01:46:56.808Z,76.11
2022-10-22T01:47:07.072Z,76.11
2022-10-22T01:47:17.333Z,76.11
2022-10-22T01:47:27.595Z,76.11
2022-10-22T01:47:38.081Z,76.11
2022-10-22T01:47:48.084Z,76.01
2022-10-22T01:47:58.346Z,76.01
2022-10-22T01:48:08.605Z,76.01
2022-10-22T01:48:18.976Z,76.01
2022-10-22T01:48:29.236Z,76.01
2022-10-22T01:48:39.499Z,76.01
2022-10-22T01:48:49.758Z,76.01
2022-10-22T01:49:00.024Z,75.91
2022-10-22T01:49:10.279Z,75.91
2022-10-22T01:49:20.541Z,75.91
2022-10-22T01:49:30.803Z,75.91
2022-10-22T01:49:41.063Z,75.91
2022-10-22T01:49:51.325Z,75.91
2022-10-22T01:50:01.588Z,75.91
2022-10-22T01:50:11.849Z,75.91
2022-10-22T01:50:22.112Z,76.01
2022-10-22T01:50:32.367Z,76.01
2022-10-22T01:50:42.643Z,76.01
2022-10-22T01:50:52.904Z,76.01
2022-10-22T01:51:03.168Z,76.01
2022-10-22T01:51:13.428Z,76.11
2022-10-22T01:51:23.691Z,76.11
2022-10-22T01:51:33.952Z,76.11
2022-10-22T01:51:44.216Z,76.11
2022-10-22T01:51:54.476Z,76.11
2022-10-22T01:52:04.873Z,76.11
2022-10-22T01:52:15.133Z,76.11
2022-10-22T01:52:25.395Z,76.11
2022-10-22T01:52:35.656Z,76.11
2022-10-22T01:52:45.933Z,76.11
2022-10-22T01:52:56.181Z,76.11
2022-10-22T01:53:06.445Z,76.11
2022-10-22T01:53:16.708Z,76.11
2022-10-22T01:53:26.968Z,76.01
2022-10-22T01:53:37.271Z,76.11
2022-10-22T01:53:47.460Z,76.11
2022-10-22T01:53:57.725Z,76.11
2022-10-22T01:54:07.989Z,76.11
2022-10-22T01:54:18.333Z,76.11
2022-10-22T01:54:28.598Z,76.11
2022-10-22T01:54:38.858Z,76.11
2022-10-22T01:54:49.119Z,76.21
2022-10-22T01:54:59.382Z,76.21
2022-10-22T01:55:09.643Z,76.11
2022-10-22T01:55:19.903Z,76.21
2022-10-22T01:55:30.166Z,76.11
2022-10-22T01:55:40.443Z,76.11
2022-10-22T01:55:50.704Z,76.11
2022-10-22T01:56:00.968Z,76.11
2022-10-22T01:56:11.229Z,76.11
2022-10-22T01:56:21.490Z,76.11
2022-10-22T01:56:31.753Z,76.11
2022-10-22T01:56:42.014Z,76.11
2022-10-22T01:56:52.276Z,76.11
2022-10-22T01:57:02.536Z,76.11
2022-10-22T01:57:12.799Z,76.11
2022-10-22T01:57:23.061Z,76.11
2022-10-22T01:57:33.321Z,76.21
2022-10-22T01:57:43.944Z,76.21
2022-10-22T01:57:54.010Z,76.11
2022-10-22T01:58:04.271Z,76.11
2022-10-22T01:58:14.533Z,76.11
2022-10-22T01:58:24.796Z,76.11
2022-10-22T01:58:35.058Z,76.11
2022-10-22T01:58:45.320Z,76.11
2022-10-22T01:58:55.581Z,76.21
2022-10-22T01:59:05.843Z,76.21
2022-10-22T01:59:16.104Z,76.21
2022-10-22T01:59:26.368Z,76.21
2022-10-22T01:59:36.651Z,76.21
2022-10-22T01:59:46.892Z,76.31
2022-10-22T01:59:57.152Z,76.21
2022-10-22T02:00:07.424Z,76.31
2022-10-22T02:00:17.676Z,76.31
2022-10-22T02:00:27.989Z,76.31
2022-10-22T02:00:38.340Z,76.31
2022-10-22T02:00:48.641Z,76.31
2022-10-22T02:00:58.882Z,76.31
2022-10-22T02:01:09.162Z,76.42
2022-10-22T02:01:19.422Z,76.42
2022-10-22T02:01:29.683Z,76.42
2022-10-22T02:01:39.945Z,76.42
2022-10-22T02:01:50.209Z,76.42
2022-10-22T02:02:00.470Z,76.42
2022-10-22T02:02:10.729Z,76.52
2022-10-22T02:02:20.995Z,76.52
2022-10-22T02:02:31.252Z,76.42
2022-10-22T02:02:41.574Z,76.42
2022-10-22T02:02:52.134Z,76.42
2022-10-22T02:03:02.180Z,76.42
2022-10-22T02:03:12.472Z,76.52
2022-10-22T02:03:23.756Z,76.52
2022-10-22T02:03:32.971Z,76.52
2022-10-22T02:03:43.250Z,76.62
2022-10-22T02:03:53.492Z,76.62
2022-10-22T02:04:03.752Z,76.62
2022-10-22T02:04:14.012Z,76.62
2022-10-22T02:04:24.312Z,76.52
2022-10-22T02:04:34.560Z,76.56
2022-10-22T02:04:44.813Z,76.52
2022-10-22T02:04:55.075Z,76.52
2022-10-22T02:05:05.342Z,76.62
2022-10-22T02:05:15.596Z,76.62
2022-10-22T02:05:25.863Z,76.62
2022-10-22T02:05:36.128Z,76.62
2022-10-22T02:05:46.397Z,76.65
2022-10-22T02:05:56.673Z,76.62
2022-10-22T02:06:06.920Z,76.62
2022-10-22T02:06:17.178Z,76.62
2022-10-22T02:06:27.440Z,76.62
2022-10-22T02:06:37.703Z,76.52
2022-10-22T02:06:47.963Z,76.52
2022-10-22T02:06:58.224Z,76.52
2022-10-22T02:07:08.491Z,76.56
2022-10-22T02:07:18.739Z,76.52
2022-10-22T02:07:29.001Z,76.52
2022-10-22T02:07:39.744Z,76.52
2022-10-22T02:07:49.506Z,76.52
2022-10-22T02:07:59.766Z,76.52
2022-10-22T02:08:10.046Z,76.52
2022-10-22T02:08:20.295Z,76.52
2022-10-22T02:08:30.552Z,76.52
2022-10-22T02:08:40.868Z,76.45
2022-10-22T02:08:51.179Z,76.45
2022-10-22T02:09:01.502Z,76.45
2022-10-22T02:09:11.793Z,76.42
2022-10-22T02:09:22.047Z,76.42
2022-10-22T02:09:32.308Z,76.31
2022-10-22T02:09:42.569Z,76.35
2022-10-22T02:09:52.831Z,76.31
2022-10-22T02:10:03.092Z,76.35
2022-10-22T02:10:13.354Z,76.35
2022-10-22T02:10:23.615Z,76.35
2022-10-22T02:10:33.885Z,76.35
2022-10-22T02:10:44.159Z,76.35
2022-10-22T02:10:54.422Z,76.31
2022-10-22T02:11:04.767Z,76.31
2022-10-22T02:11:15.029Z,76.31
2022-10-22T02:11:25.291Z,76.35
2022-10-22T02:11:35.551Z,76.35
2022-10-22T02:11:45.812Z,76.35
2022-10-22T02:11:56.146Z,76.35
2022-10-22T02:12:16.851Z,76.21
2022-10-22T02:12:27.117Z,76.35
2022-10-22T02:12:37.755Z,76.25